Time;durP1;ratioP1;P1;durP2;ratioP2;P2;SDS_P1;SDS_P2;PMS_P1;PMS_P2;Temp;Humidity;BMP_temperature;BMP_pressure;BME280_temperature;BME280_humidity;BME280_pressure;Samples;Min_cycle;Max_cycle;Signal;HPM_P1;HPM_P2
2022/11/18 06:24:10;;;;;;;2.00;0.30;;;9.40;99.90;;;;;;5602913;23;20144;-77
2022/11/18 06:26:37;;;;;;;0.32;0.32;;;9.50;99.90;;;;;;4897616;29;20072;-79
2022/11/18 06:29:07;;;;;;;1.77;0.50;;;9.40;99.90;;;;;;4895379;29;20463;-78
2022/11/18 06:31:33;;;;;;;0.52;0.52;;;9.40;99.90;;;;;;4887467;29;20049;-77
2022/11/18 06:34:00;;;;;;;0.50;0.30;;;9.40;99.90;;;;;;4898029;29;20055;-77
2022/11/18 06:36:27;;;;;;;0.25;0.25;;;9.30;99.90;;;;;;4910438;23;20055;-80
2022/11/18 06:38:53;;;;;;;0.55;0.30;;;9.30;99.90;;;;;;4891074;29;20407;-80
2022/11/18 06:41:20;;;;;;;0.93;0.60;;;9.30;99.90;;;;;;4893174;29;20049;-81
2022/11/18 06:43:47;;;;;;;2.03;0.57;;;9.30;99.90;;;;;;4904596;29;20060;-83
2022/11/18 06:49:01;;;;;;;0.30;0.25;;;9.30;99.90;;;;;;4893732;29;20476;-81
2022/11/18 06:51:29;;;;;;;1.08;0.40;;;9.40;99.90;;;;;;4892910;29;20053;-79
2022/11/18 06:53:55;;;;;;;2.03;0.45;;;9.40;99.90;;;;;;4900378;29;20055;-81
2022/11/18 06:56:23;;;;;;;0.60;0.52;;;9.40;99.90;;;;;;4897176;29;20060;-81
2022/11/18 06:58:54;;;;;;;1.92;0.77;;;9.50;99.90;;;;;;4900571;29;20060;-82
2022/11/18 07:01:24;;;;;;;0.80;0.40;;;9.60;99.90;;;;;;4892272;29;20108;-81
2022/11/18 07:03:51;;;;;;;0.50;0.40;;;9.50;99.90;;;;;;4895216;29;20074;-82
2022/11/18 07:06:23;;;;;;;2.53;0.43;;;9.60;99.90;;;;;;4892559;29;20060;-82
2022/11/18 07:08:50;;;;;;;1.45;0.50;;;9.60;99.90;;;;;;4904800;29;20056;-82
2022/11/18 07:11:20;;;;;;;0.90;0.47;;;9.60;99.90;;;;;;4903783;29;20048;-82
2022/11/18 07:13:47;;;;;;;0.50;0.50;;;9.60;99.90;;;;;;4901611;29;20049;-82
2022/11/18 07:16:19;;;;;;;0.52;0.40;;;9.60;99.90;;;;;;4904589;29;20243;-81
2022/11/18 07:18:48;;;;;;;1.27;0.35;;;9.60;99.90;;;;;;4896025;29;20060;-82
2022/11/18 07:21:17;;;;;;;1.23;0.40;;;9.70;99.90;;;;;;4893559;29;20071;-82
2022/11/18 07:23:45;;;;;;;1.50;0.75;;;9.70;99.90;;;;;;4892140;29;20049;-82
2022/11/18 07:26:12;;;;;;;2.00;0.57;;;9.70;99.90;;;;;;4894274;29;20060;-82
2022/11/18 07:28:39;;;;;;;4.47;0.55;;;9.70;99.90;;;;;;4899736;29;20451;-82
2022/11/18 07:31:07;;;;;;;0.45;0.45;;;9.70;99.90;;;;;;4892292;29;20061;-82
2022/11/18 07:33:35;;;;;;;1.80;0.60;;;9.70;99.90;;;;;;4892108;29;20112;-79
2022/11/18 07:36:04;;;;;;;0.30;0.30;;;9.80;99.90;;;;;;4893547;29;20060;-82
2022/11/18 07:38:31;;;;;;;0.88;0.52;;;9.80;99.90;;;;;;4899173;29;20060;-82
2022/11/18 07:41:16;;;;;;;2.95;0.55;;;9.80;99.90;;;;;;4892019;29;20055;-82
2022/11/18 07:43:43;;;;;;;1.70;0.30;;;9.80;99.90;;;;;;4895092;29;20140;-82
2022/11/18 07:46:14;;;;;;;3.28;0.60;;;9.80;99.90;;;;;;4892083;29;20056;-81
2022/11/18 07:48:42;;;;;;;2.22;0.68;;;9.80;99.90;;;;;;4890840;29;20056;-80
2022/11/18 07:51:10;;;;;;;0.90;0.60;;;9.90;99.90;;;;;;4895024;29;20053;-81
2022/11/18 07:53:37;;;;;;;2.35;0.57;;;9.90;99.90;;;;;;4895757;29;20569;-82
2022/11/18 07:56:05;;;;;;;1.75;0.60;;;9.90;99.90;;;;;;4890619;29;20131;-81
2022/11/18 07:58:32;;;;;;;1.42;0.70;;;10.00;99.90;;;;;;4896141;29;20494;-82
2022/11/18 08:01:12;;;;;;;4.03;0.90;;;10.00;99.90;;;;;;4889823;29;20060;-82
2022/11/18 08:03:40;;;;;;;0.60;0.60;;;10.00;99.90;;;;;;4892006;29;20056;-82
2022/11/18 08:06:09;;;;;;;3.00;0.82;;;10.10;99.90;;;;;;4881635;29;20049;-82
2022/11/18 08:08:36;;;;;;;3.03;0.65;;;10.10;99.90;;;;;;4887842;29;20434;-83
2022/11/18 08:11:07;;;;;;;2.75;0.63;;;10.10;99.90;;;;;;4883012;29;20049;-81
2022/11/18 08:13:35;;;;;;;1.00;0.50;;;10.10;99.90;;;;;;4886157;29;20056;-82
2022/11/18 08:16:04;;;;;;;2.00;1.25;;;10.20;99.90;;;;;;4887148;29;20057;-82
2022/11/18 08:18:31;;;;;;;1.63;0.55;;;10.20;99.90;;;;;;4894065;29;20052;-82
2022/11/18 08:21:05;;;;;;;4.75;0.80;;;10.20;99.90;;;;;;4892371;29;20478;-82
2022/11/18 08:23:32;;;;;;;1.15;0.70;;;10.20;99.90;;;;;;4893010;29;20106;-82
2022/11/18 08:26:10;;;;;;;3.50;0.95;;;10.30;99.90;;;;;;4893824;29;20056;-81
2022/11/18 08:28:37;;;;;;;5.75;0.88;;;10.30;99.90;;;;;;4891210;29;20148;-82
2022/11/18 08:31:19;;;;;;;1.67;0.70;;;10.50;99.90;;;;;;4901164;29;20053;-81
2022/11/18 08:33:45;;;;;;;0.98;0.63;;;10.50;99.90;;;;;;4892145;29;20063;-82
2022/11/18 08:36:15;;;;;;;1.50;0.60;;;10.50;99.90;;;;;;4891653;29;20140;-81
2022/11/18 08:38:42;;;;;;;3.20;0.73;;;10.60;99.90;;;;;;4898571;29;20104;-79
2022/11/18 08:41:15;;;;;;;2.05;0.73;;;10.70;99.90;;;;;;4891665;29;20067;-82
2022/11/18 08:43:42;;;;;;;1.50;0.50;;;10.70;99.90;;;;;;4892759;29;20430;-82
2022/11/18 08:46:08;;;;;;;2.28;1.25;;;10.80;99.90;;;;;;4888936;29;20052;-82
2022/11/18 08:48:35;;;;;;;1.60;0.63;;;10.80;99.90;;;;;;4890533;29;20049;-82
2022/11/18 08:51:03;;;;;;;0.65;0.47;;;10.80;99.90;;;;;;4889000;29;20069;-82
2022/11/18 08:53:31;;;;;;;0.93;0.50;;;10.80;99.90;;;;;;4893512;29;20059;-80
2022/11/18 08:55:59;;;;;;;1.48;0.60;;;10.80;99.90;;;;;;4889936;29;20148;-83
2022/11/18 08:58:26;;;;;;;1.17;0.60;;;10.80;99.90;;;;;;4892648;29;20051;-82
2022/11/18 09:00:53;;;;;;;0.80;0.60;;;10.80;99.90;;;;;;4889961;29;20415;-82
2022/11/18 09:03:20;;;;;;;0.85;0.45;;;10.80;99.90;;;;;;4899106;29;20474;-82
2022/11/18 09:05:46;;;;;;;1.52;0.70;;;10.80;99.90;;;;;;4889972;29;20049;-82
2022/11/18 09:08:14;;;;;;;1.00;0.60;;;10.70;99.90;;;;;;4893106;29;20075;-82
2022/11/18 09:10:41;;;;;;;1.02;0.70;;;10.70;99.90;;;;;;4889356;29;20419;-82
2022/11/18 09:13:08;;;;;;;1.25;0.70;;;10.70;99.90;;;;;;4893662;29;20057;-82
2022/11/18 09:15:57;;;;;;;0.68;0.65;;;10.80;99.90;;;;;;4891185;29;20060;-82
2022/11/18 09:18:25;;;;;;;1.63;1.30;;;10.80;99.90;;;;;;4890834;29;20144;-82
2022/11/18 09:21:00;;;;;;;1.42;0.80;;;10.80;99.90;;;;;;4891875;29;20278;-82
2022/11/18 09:23:27;;;;;;;1.42;0.90;;;10.80;99.90;;;;;;4890134;29;20148;-82
2022/11/18 09:26:06;;;;;;;3.67;1.33;;;10.80;99.90;;;;;;4899399;29;20059;-81
2022/11/18 09:28:33;;;;;;;1.02;0.50;;;10.90;99.90;;;;;;4891331;29;20052;-82
2022/11/18 09:31:05;;;;;;;1.35;0.73;;;10.90;99.90;;;;;;4892587;29;20139;-83
2022/11/18 09:33:32;;;;;;;0.95;0.80;;;11.00;99.90;;;;;;4891634;29;20053;-81
2022/11/18 09:35:58;;;;;;;3.78;0.75;;;11.10;99.90;;;;;;4890428;29;20446;-82
2022/11/18 09:38:28;;;;;;;1.00;0.60;;;11.10;99.90;;;;;;4892701;29;20049;-82
2022/11/18 09:41:22;;;;;;;0.90;0.57;;;11.10;99.90;;;;;;4890790;29;20064;-82
2022/11/18 09:44:27;;;;;;;1.92;0.85;;;11.10;99.90;;;;;;4892607;29;20049;-82
2022/11/18 09:47:25;;;;;;;0.57;0.57;;;11.10;99.90;;;;;;4893737;29;20514;-82
2022/11/18 09:49:54;;;;;;;3.95;0.82;;;11.10;99.90;;;;;;4894458;29;20533;-83
2022/11/18 09:52:39;;;;;;;0.68;0.68;;;11.10;99.90;;;;;;4892225;29;20055;-81
2022/11/18 09:55:14;;;;;;;4.45;0.93;;;11.10;99.90;;;;;;4890873;29;20057;-82
2022/11/18 09:57:55;;;;;;;1.48;0.90;;;11.10;99.90;;;;;;4890997;29;20065;-81
2022/11/18 10:00:25;;;;;;;1.23;0.63;;;11.00;99.90;;;;;;4890480;29;20051;-82
2022/11/18 10:03:11;;;;;;;0.50;0.50;;;11.00;99.90;;;;;;4890805;29;20053;-82
2022/11/18 10:06:08;;;;;;;1.63;0.98;;;11.00;99.90;;;;;;4891824;29;20413;-81
2022/11/18 10:08:57;;;;;;;2.90;1.05;;;11.10;99.90;;;;;;4888650;29;20053;-81
2022/11/18 10:11:28;;;;;;;1.25;0.85;;;11.00;99.90;;;;;;4888438;29;20056;-80
2022/11/18 10:13:55;;;;;;;2.05;0.70;;;11.00;99.90;;;;;;4886667;29;20053;-82
2022/11/18 10:16:30;;;;;;;1.00;0.77;;;11.00;99.90;;;;;;4890898;29;20053;-80
2022/11/18 10:19:15;;;;;;;1.90;1.00;;;11.00;99.90;;;;;;4893460;29;20438;-81
2022/11/18 10:21:50;;;;;;;2.67;0.60;;;11.00;99.90;;;;;;4902108;29;20056;-81
2022/11/18 10:24:23;;;;;;;1.63;0.70;;;10.90;99.90;;;;;;4892578;29;20060;-81
2022/11/18 10:26:58;;;;;;;3.65;0.68;;;10.90;99.90;;;;;;4892157;29;20044;-81
2022/11/18 10:29:26;;;;;;;2.13;0.60;;;10.90;99.90;;;;;;4901513;29;20060;-81
2022/11/18 10:31:55;;;;;;;1.15;0.60;;;10.90;99.90;;;;;;4892324;29;20053;-81
2022/11/18 10:34:30;;;;;;;0.50;0.50;;;10.90;99.90;;;;;;4898937;29;20053;-79
2022/11/18 10:37:03;;;;;;;0.40;0.40;;;10.80;99.90;;;;;;4892004;29;20146;-79
2022/11/18 10:39:30;;;;;;;0.45;0.38;;;10.90;99.90;;;;;;4893318;29;20053;-82
2022/11/18 10:42:04;;;;;;;1.17;0.60;;;10.90;99.90;;;;;;4899362;29;20053;-81
2022/11/18 10:44:36;;;;;;;0.60;0.60;;;10.90;99.90;;;;;;4892073;29;20059;-82
2022/11/18 10:47:14;;;;;;;0.50;0.43;;;11.00;99.90;;;;;;4901064;29;20068;-81
2022/11/18 10:49:41;;;;;;;0.80;0.50;;;11.10;99.90;;;;;;4890954;29;20061;-81
2022/11/18 10:52:13;;;;;;;0.70;0.45;;;11.20;99.90;;;;;;4895538;29;20056;-82
2022/11/18 10:54:40;;;;;;;1.75;0.80;;;11.20;99.90;;;;;;4899393;29;20105;-81
2022/11/18 10:57:17;;;;;;;0.77;0.63;;;11.20;99.90;;;;;;4893448;29;20061;-82
2022/11/18 10:59:53;;;;;;;0.90;0.63;;;11.20;99.90;;;;;;4894435;29;20076;-82
2022/11/18 11:02:30;;;;;;;2.72;0.88;;;11.10;99.90;;;;;;4891166;29;20053;-82
2022/11/18 11:05:24;;;;;;;1.67;0.80;;;11.10;99.90;;;;;;4892971;29;20136;-82
2022/11/18 11:08:05;;;;;;;1.35;1.00;;;11.20;99.90;;;;;;4894683;29;20053;-82
2022/11/18 11:10:57;;;;;;;2.42;0.88;;;11.20;99.90;;;;;;4895496;29;20416;-82
2022/11/18 11:13:29;;;;;;;1.58;0.70;;;11.30;99.90;;;;;;4902890;29;20048;-80
2022/11/18 11:16:00;;;;;;;1.77;0.75;;;11.20;99.90;;;;;;4899427;29;20063;-80
2022/11/18 11:18:41;;;;;;;1.75;0.60;;;11.20;99.90;;;;;;4899355;29;20092;-82
2022/11/18 11:21:13;;;;;;;2.17;0.75;;;11.20;99.90;;;;;;4890636;29;20053;-82
2022/11/18 11:23:40;;;;;;;3.78;1.30;;;11.30;99.90;;;;;;4892018;29;20059;-81
2022/11/18 11:26:28;;;;;;;1.42;0.75;;;11.30;99.90;;;;;;4892656;29;20057;-83
2022/11/18 11:29:35;;;;;;;1.05;0.40;;;11.30;99.90;;;;;;4892576;29;20057;-81
2022/11/18 11:32:18;;;;;;;4.38;0.80;;;11.40;99.90;;;;;;4891428;29;20061;-81
2022/11/18 11:35:22;;;;;;;2.17;1.02;;;11.40;99.90;;;;;;4891919;29;20056;-80
2022/11/18 11:37:57;;;;;;;1.95;0.90;;;11.30;99.90;;;;;;4892120;29;20057;-82
2022/11/18 11:40:41;;;;;;;1.90;0.60;;;11.30;99.90;;;;;;4892171;29;20059;-82
2022/11/18 11:43:35;;;;;;;0.80;0.50;;;11.30;99.90;;;;;;4895048;29;20363;-82
2022/11/18 11:46:07;;;;;;;1.08;0.45;;;11.30;99.90;;;;;;4886533;29;20053;-82
2022/11/18 11:48:50;;;;;;;3.08;0.60;;;11.30;99.90;;;;;;4891721;29;20048;-82
2022/11/18 11:51:35;;;;;;;0.82;0.50;;;11.20;99.90;;;;;;4891668;29;20057;-81
2022/11/18 11:54:13;;;;;;;1.95;0.70;;;11.20;99.90;;;;;;4892065;29;20053;-82
2022/11/18 11:57:09;;;;;;;0.80;0.52;;;11.20;99.90;;;;;;4893538;29;20052;-81
2022/11/18 11:59:49;;;;;;;1.75;0.55;;;11.10;99.90;;;;;;4893679;29;20055;-82
2022/11/18 12:02:25;;;;;;;;;;;11.10;99.90;;;;;;4891980;29;20073;-81
2022/11/18 12:04:56;;;;;;;2.42;0.60;;;11.10;99.90;;;;;;4891252;29;19924;-81
2022/11/18 12:07:37;;;;;;;2.35;0.63;;;11.10;99.90;;;;;;4889982;29;20517;-82
2022/11/18 12:10:14;;;;;;;1.77;0.52;;;11.10;99.90;;;;;;4892573;29;20502;-83
2022/11/18 12:13:20;;;;;;;1.52;0.57;;;11.10;99.90;;;;;;4897902;29;20053;-82
2022/11/18 12:16:25;;;;;;;1.55;0.60;;;11.10;99.90;;;;;;4883986;29;20055;-83
2022/11/18 12:18:55;;;;;;;2.15;1.33;;;11.20;99.90;;;;;;4883721;29;20076;-83
2022/11/18 12:21:41;;;;;;;2.22;0.90;;;11.20;99.90;;;;;;4883108;29;20071;-83
2022/11/18 12:24:38;;;;;;;4.75;0.73;;;11.20;99.90;;;;;;4890604;29;20530;-82
2022/11/18 12:27:26;;;;;;;2.00;1.08;;;11.20;99.90;;;;;;4906263;29;20053;-83
2022/11/18 12:29:58;;;;;;;0.63;0.50;;;11.20;99.90;;;;;;4899657;29;20521;-84
2022/11/18 12:32:27;;;;;;;6.15;0.80;;;11.20;99.90;;;;;;4893078;29;20041;-83
2022/11/18 12:35:14;;;;;;;4.80;1.30;;;11.20;99.90;;;;;;4896779;29;20051;-84
2022/11/18 12:37:50;;;;;;;2.65;1.30;;;11.20;99.90;;;;;;4885684;29;20044;-83
2022/11/18 12:40:37;;;;;;;3.10;1.00;;;11.20;99.90;;;;;;4888263;29;20080;-81
2022/11/18 12:46:30;;;;;;;3.55;0.68;;;11.10;99.90;;;;;;4888871;29;20057;-82
2022/11/18 12:48:56;;;;;;;1.90;0.82;;;11.10;99.90;;;;;;4895974;29;20430;-80
2022/11/18 12:51:24;;;;;;;4.13;1.20;;;11.10;99.90;;;;;;4891492;29;20079;-82
2022/11/18 12:53:51;;;;;;;4.55;1.20;;;11.10;99.90;;;;;;4894462;29;20060;-82
2022/11/18 12:56:22;;;;;;;2.97;0.93;;;11.10;99.90;;;;;;4897605;29;20068;-81
2022/11/18 12:58:56;;;;;;;;;;;11.10;99.90;;;;;;4895951;29;20049;-81
2022/11/18 13:01:28;;;;;;;4.85;1.27;;;11.10;99.90;;;;;;4893201;29;20031;-81
2022/11/18 13:04:21;;;;;;;8.00;1.50;;;11.00;99.90;;;;;;4887166;29;20060;-81
2022/11/18 13:06:49;;;;;;;2.13;0.90;;;11.10;99.90;;;;;;4893420;29;20159;-81
2022/11/18 13:09:29;;;;;;;7.97;1.13;;;11.10;99.90;;;;;;4896478;29;20212;-81
2022/11/18 13:12:15;;;;;;;3.07;0.90;;;11.10;99.90;;;;;;4890345;29;20083;-81
2022/11/18 13:20:23;;;;;;;2.47;1.25;;;11.00;99.90;;;;;;4890962;29;20152;-81
2022/11/18 13:25:44;;;;;;;4.38;1.38;;;11.00;99.90;;;;;;4895214;29;20052;-80
2022/11/18 13:28:49;;;;;;;7.93;1.40;;;11.00;99.90;;;;;;4893853;29;20514;-81
2022/11/18 13:31:16;;;;;;;3.03;1.15;;;11.10;99.90;;;;;;4892254;29;20530;-78
2022/11/18 13:33:43;;;;;;;4.80;1.30;;;11.00;99.90;;;;;;4894697;29;20055;-80
2022/11/18 13:36:16;;;;;;;3.92;1.00;;;11.00;99.90;;;;;;4896078;29;20514;-79
2022/11/18 13:38:58;;;;;;;2.33;0.98;;;11.00;99.90;;;;;;4891118;29;20048;-81
2022/11/18 13:41:36;;;;;;;3.88;1.05;;;11.00;99.90;;;;;;4893464;29;20057;-81
2022/11/18 13:44:21;;;;;;;3.05;1.00;;;11.00;99.90;;;;;;4894272;29;20538;-78
2022/11/18 13:47:00;;;;;;;4.35;1.00;;;11.00;99.90;;;;;;4889569;29;20061;-80
2022/11/18 13:49:56;;;;;;;7.97;1.30;;;11.00;99.90;;;;;;4894072;29;20511;-81
2022/11/18 13:52:30;;;;;;;4.95;1.15;;;11.00;99.90;;;;;;4900667;29;20051;-81
2022/11/18 13:55:00;;;;;;;7.50;1.70;;;11.00;99.90;;;;;;4899424;29;20542;-80
2022/11/18 13:57:28;;;;;;;3.83;0.90;;;11.00;99.90;;;;;;4901284;29;20052;-80
2022/11/18 14:00:00;;;;;;;6.72;1.25;;;11.10;99.90;;;;;;4896085;29;20746;-80
2022/11/18 14:02:26;;;;;;;3.28;0.80;;;11.10;99.90;;;;;;4899605;29;20049;-79
2022/11/18 14:04:57;;;;;;;3.00;1.00;;;11.00;99.90;;;;;;4899163;29;20045;-79
2022/11/18 14:07:33;;;;;;;6.40;1.17;;;11.00;99.90;;;;;;4892924;29;20061;-78
2022/11/18 14:10:05;;;;;;;9.05;1.23;;;11.10;99.90;;;;;;4894344;29;20048;-81
2022/11/18 14:12:33;;;;;;;4.97;1.27;;;11.10;99.90;;;;;;4893695;29;20060;-82
2022/11/18 14:15:29;;;;;;;3.25;0.88;;;11.10;99.90;;;;;;4889442;29;20068;-81
2022/11/18 14:17:58;;;;;;;6.68;1.85;;;11.10;99.90;;;;;;4900934;29;20059;-82
2022/11/18 14:20:27;;;;;;;3.77;1.40;;;11.00;99.90;;;;;;4896185;29;20507;-82
2022/11/18 14:22:59;;;;;;;3.83;1.90;;;11.00;99.90;;;;;;4899413;29;20040;-82
2022/11/18 14:25:32;;;;;;;4.80;2.17;;;11.00;99.90;;;;;;4897221;29;20053;-82
2022/11/18 14:28:10;;;;;;;6.88;1.88;;;11.00;99.90;;;;;;4899360;29;20068;-82
2022/11/18 14:30:41;;;;;;;2.13;0.88;;;11.00;99.90;;;;;;4894334;29;20065;-80
2022/11/18 14:33:14;;;;;;;1.17;0.80;;;11.00;99.90;;;;;;4892717;29;20139;-82
2022/11/18 14:35:49;;;;;;;4.32;0.90;;;11.10;99.90;;;;;;4893475;29;20064;-82
2022/11/18 14:38:45;;;;;;;3.40;0.82;;;11.10;99.90;;;;;;4885598;29;20545;-82
2022/11/18 14:41:46;;;;;;;0.70;0.60;;;11.10;99.90;;;;;;4893724;29;20057;-81
2022/11/18 14:44:14;;;;;;;1.67;0.45;;;11.20;99.90;;;;;;4895555;29;20055;-82
2022/11/18 14:46:44;;;;;;;2.33;0.70;;;11.20;99.90;;;;;;4894888;29;20526;-82
2022/11/18 14:49:14;;;;;;;4.43;1.15;;;11.20;99.90;;;;;;4897462;29;20048;-82
2022/11/18 14:51:41;;;;;;;4.70;0.90;;;11.20;99.90;;;;;;4894390;29;20136;-81
2022/11/18 14:54:12;;;;;;;8.27;1.50;;;11.30;99.90;;;;;;4893285;29;20087;-82
2022/11/18 14:56:40;;;;;;;4.30;0.88;;;11.30;99.90;;;;;;4891877;29;20056;-83
2022/11/18 14:59:14;;;;;;;3.25;1.05;;;11.30;99.90;;;;;;4884606;29;20052;-83
2022/11/18 15:01:42;;;;;;;5.15;1.00;;;11.40;99.90;;;;;;4897153;29;20056;-82
2022/11/18 15:04:09;;;;;;;3.97;0.95;;;11.40;99.90;;;;;;4894338;29;20049;-83
2022/11/18 15:06:37;;;;;;;5.03;1.10;;;11.30;99.90;;;;;;4890859;29;20104;-82
2022/11/18 15:09:06;;;;;;;5.57;1.20;;;11.20;99.90;;;;;;4899214;29;20055;-83
2022/11/18 15:11:34;;;;;;;3.80;1.00;;;11.20;99.90;;;;;;4895425;29;20072;-82
2022/11/18 15:14:01;;;;;;;4.30;1.20;;;11.10;99.90;;;;;;4891459;29;20063;-83
2022/11/18 15:16:29;;;;;;;8.98;1.10;;;11.20;99.90;;;;;;4895276;29;20053;-82
2022/11/18 15:18:59;;;;;;;3.65;1.02;;;11.20;99.90;;;;;;4891912;29;20132;-83
2022/11/18 15:21:26;;;;;;;2.72;0.98;;;11.10;99.90;;;;;;4891900;29;20447;-83
2022/11/18 15:23:53;;;;;;;5.10;1.50;;;11.10;99.90;;;;;;4894965;29;20104;-84
2022/11/18 15:26:23;;;;;;;6.47;1.80;;;11.10;99.90;;;;;;4890060;29;20444;-82
2022/11/18 15:28:52;;;;;;;7.35;1.80;;;11.10;99.90;;;;;;4903071;29;20048;-83
2022/11/18 15:31:20;;;;;;;8.63;2.00;;;11.10;99.90;;;;;;4898629;29;20079;-82
2022/11/18 15:33:50;;;;;;;5.35;1.92;;;11.00;99.90;;;;;;4899458;29;20052;-82
2022/11/18 15:36:19;;;;;;;4.93;1.60;;;11.00;99.90;;;;;;4893926;29;20091;-82
2022/11/18 15:38:47;;;;;;;5.25;3.05;;;11.00;99.90;;;;;;4896993;29;20092;-80
2022/11/18 15:41:22;;;;;;;8.40;2.40;;;11.00;99.90;;;;;;4891339;29;20055;-83
2022/11/18 15:43:49;;;;;;;4.20;1.58;;;11.00;99.90;;;;;;4898280;29;20060;-83
2022/11/18 15:46:20;;;;;;;6.13;1.77;;;10.90;99.90;;;;;;4892513;29;20055;-83
2022/11/18 15:48:50;;;;;;;6.13;2.10;;;10.90;99.90;;;;;;4896564;29;20061;-83
2022/11/18 15:51:17;;;;;;;6.57;2.20;;;10.90;99.90;;;;;;4896722;29;20065;-83
2022/11/18 15:53:43;;;;;;;11.98;2.72;;;10.80;99.90;;;;;;4900382;29;20463;-82
2022/11/18 15:56:19;;;;;;;10.25;2.90;;;10.80;99.90;;;;;;4904058;29;20060;-81
2022/11/18 15:59:08;;;;;;;6.82;1.65;;;10.80;99.90;;;;;;4905619;29;20048;-82
2022/11/18 16:01:50;;;;;;;6.38;2.33;;;10.70;99.90;;;;;;4905079;29;20055;-82
2022/11/18 16:04:20;;;;;;;5.88;1.80;;;10.70;99.90;;;;;;4904765;29;20162;-80
2022/11/18 16:06:47;;;;;;;3.75;1.55;;;10.60;99.90;;;;;;4906010;29;20427;-82
2022/11/18 16:09:15;;;;;;;5.80;1.60;;;10.60;99.90;;;;;;4898645;29;20128;-81
2022/11/18 16:14:28;;;;;;;8.98;1.90;;;10.50;99.90;;;;;;4907231;29;20056;-81
2022/11/18 16:16:55;;;;;;;6.75;1.67;;;10.60;99.90;;;;;;4902174;29;20044;-82
2022/11/18 16:19:24;;;;;;;4.90;1.77;;;10.50;99.90;;;;;;4904544;29;20049;-81
2022/11/18 16:21:53;;;;;;;5.88;2.15;;;10.50;99.90;;;;;;4905941;29;20058;-81
2022/11/18 16:24:26;;;;;;;4.57;2.03;;;10.50;99.90;;;;;;4902809;29;20169;-82
2022/11/18 16:26:53;;;;;;;4.53;1.25;;;10.40;99.90;;;;;;4900444;29;20414;-82
2022/11/18 16:29:20;;;;;;;7.95;2.25;;;10.40;99.90;;;;;;4901513;29;20056;-83
2022/11/18 16:31:51;;;;;;;6.35;2.20;;;10.30;99.90;;;;;;4891612;29;20128;-82
2022/11/18 16:34:21;;;;;;;8.27;1.95;;;10.30;99.90;;;;;;4887032;29;20570;-82
2022/11/18 16:36:51;;;;;;;7.35;2.05;;;10.30;99.90;;;;;;4888316;29;20506;-82
2022/11/18 16:39:24;;;;;;;6.85;1.83;;;10.20;99.90;;;;;;4896410;29;21515;-81
2022/11/18 16:42:11;;;;;;;4.95;1.40;;;10.20;99.90;;;;;;4899452;29;20048;-82
2022/11/18 16:44:38;;;;;;;9.48;1.83;;;10.10;99.90;;;;;;4892066;29;20143;-82
2022/11/18 16:47:05;;;;;;;8.73;1.45;;;10.10;99.90;;;;;;4895170;29;20052;-82
2022/11/18 16:49:39;;;;;;;6.30;1.42;;;10.10;99.90;;;;;;4897910;29;20407;-82
2022/11/18 16:52:06;;;;;;;9.43;1.80;;;10.10;99.90;;;;;;4892951;29;20136;-82
2022/11/18 16:54:33;;;;;;;5.75;1.38;;;10.10;99.90;;;;;;4893330;29;20135;-82
2022/11/18 16:57:05;;;;;;;3.72;1.58;;;10.10;99.90;;;;;;4892988;29;20108;-82
2022/11/18 16:59:31;;;;;;;5.78;1.60;;;10.10;99.90;;;;;;4893324;29;20057;-82
2022/11/18 17:02:00;;;;;;;9.15;3.03;;;10.10;99.90;;;;;;4894077;29;20053;-82
2022/11/18 17:04:29;;;;;;;8.63;1.77;;;10.10;99.90;;;;;;4904435;29;20109;-82
2022/11/18 17:06:58;;;;;;;3.25;1.83;;;10.10;99.90;;;;;;4893743;29;20121;-82
2022/11/18 17:09:25;;;;;;;5.00;2.30;;;10.10;99.90;;;;;;4890561;29;20144;-81
2022/11/18 17:11:53;;;;;;;3.63;1.60;;;10.10;99.90;;;;;;4894086;29;20056;-81
2022/11/18 17:14:21;;;;;;;8.63;2.03;;;10.10;99.90;;;;;;4894789;29;20422;-82
2022/11/18 17:16:48;;;;;;;4.15;1.55;;;10.00;99.90;;;;;;4892608;29;20422;-81
2022/11/18 17:19:17;;;;;;;7.07;1.42;;;10.00;99.90;;;;;;4897994;29;20056;-81
2022/11/18 17:21:45;;;;;;;3.17;1.55;;;9.90;99.90;;;;;;4893844;29;20049;-82
2022/11/18 17:24:14;;;;;;;4.70;1.17;;;9.90;99.90;;;;;;4890487;29;20059;-82
2022/11/18 17:26:41;;;;;;;3.67;1.38;;;9.80;99.90;;;;;;4895536;29;20686;-81
2022/11/18 17:29:10;;;;;;;6.90;1.63;;;9.80;99.90;;;;;;4893664;29;20060;-82
2022/11/18 17:31:37;;;;;;;2.55;1.50;;;9.70;99.90;;;;;;4897182;29;20048;-82
2022/11/18 17:34:04;;;;;;;7.65;1.60;;;9.70;99.90;;;;;;4897584;29;20052;-82
2022/11/18 17:36:31;;;;;;;7.15;1.55;;;9.70;99.90;;;;;;4898829;29;20053;-81
2022/11/18 17:38:59;;;;;;;5.32;1.80;;;9.60;99.90;;;;;;4895302;29;20044;-82
2022/11/18 17:44:15;;;;;;;4.85;2.78;;;9.50;99.90;;;;;;4904359;29;20064;-81
2022/11/18 17:46:43;;;;;;;;;;;9.50;99.90;;;;;;4904348;29;20041;-81
2022/11/18 17:49:12;;;;;;;3.05;1.42;;;9.50;99.90;;;;;;4896212;29;19927;-81
2022/11/18 17:51:39;;;;;;;4.63;1.67;;;9.40;99.90;;;;;;4896236;29;20075;-81
2022/11/18 17:54:07;;;;;;;2.20;1.20;;;9.30;99.90;;;;;;4890375;29;20053;-81
2022/11/18 17:56:34;;;;;;;1.60;0.95;;;9.30;99.90;;;;;;4898407;29;20071;-81
2022/11/18 17:59:00;;;;;;;2.83;0.90;;;9.20;99.90;;;;;;4894720;29;20426;-81
2022/11/18 18:01:27;;;;;;;5.80;1.75;;;9.20;99.90;;;;;;4895632;29;20123;-81
2022/11/18 18:03:54;;;;;;;5.35;1.58;;;9.10;99.90;;;;;;4896111;29;20056;-82
2022/11/18 18:06:21;;;;;;;6.13;1.70;;;9.10;99.90;;;;;;4891208;29;20060;-81
2022/11/18 18:08:48;;;;;;;4.28;1.38;;;9.00;99.90;;;;;;4891090;29;20056;-81
2022/11/18 18:11:17;;;;;;;6.07;1.90;;;9.00;99.90;;;;;;4898579;29;20049;-81
2022/11/18 18:16:32;;;;;;;3.70;1.45;;;8.90;99.90;;;;;;4894369;29;20075;-81
2022/11/18 18:19:00;;;;;;;2.72;1.95;;;8.90;99.90;;;;;;4893913;29;20049;-82
2022/11/18 18:21:27;;;;;;;4.75;1.67;;;8.90;99.90;;;;;;4890582;29;20520;-81
2022/11/18 18:23:54;;;;;;;3.55;1.20;;;8.90;99.90;;;;;;4890903;29;20053;-81
2022/11/18 18:26:21;;;;;;;5.35;1.50;;;8.90;99.90;;;;;;4893528;29;20426;-81
2022/11/18 18:28:57;;;;;;;5.13;1.67;;;8.90;99.90;;;;;;4896508;29;20053;-81
2022/11/18 18:31:23;;;;;;;3.47;1.00;;;9.00;99.90;;;;;;4898643;29;20521;-81
2022/11/18 18:33:50;;;;;;;3.22;1.05;;;9.00;99.90;;;;;;4901982;29;20063;-81
2022/11/18 18:36:18;;;;;;;2.53;1.10;;;9.10;99.90;;;;;;4892495;29;20052;-81
2022/11/18 18:38:45;;;;;;;3.80;1.02;;;9.10;99.90;;;;;;4897060;29;20459;-81
2022/11/18 18:41:15;;;;;;;2.38;0.93;;;9.10;99.90;;;;;;4894437;29;20049;-81
2022/11/18 18:43:43;;;;;;;6.38;1.13;;;9.20;99.90;;;;;;4895639;29;20061;-81
2022/11/18 18:46:28;;;;;;;4.38;1.00;;;9.20;99.90;;;;;;4894211;29;20057;-81
2022/11/18 18:48:59;;;;;;;3.83;0.88;;;9.20;99.90;;;;;;4893802;29;20056;-81
2022/11/18 18:51:27;;;;;;;1.98;1.00;;;9.20;99.90;;;;;;4894232;29;20057;-81
2022/11/18 18:53:55;;;;;;;28.45;2.08;;;9.30;99.90;;;;;;4900286;29;20056;-81
2022/11/18 18:56:22;;;;;;;4.75;0.95;;;9.30;99.90;;;;;;4898856;29;20491;-82
2022/11/18 18:58:49;;;;;;;3.17;0.90;;;9.30;99.90;;;;;;4896983;29;20558;-82
2022/11/18 19:01:16;;;;;;;1.90;0.98;;;9.30;99.90;;;;;;4894993;29;20053;-81
2022/11/18 19:03:44;;;;;;;2.97;0.75;;;9.30;99.90;;;;;;4896659;29;20101;-81
2022/11/18 19:06:24;;;;;;;4.47;0.80;;;9.40;99.90;;;;;;4896810;29;20065;-81
2022/11/18 19:09:11;;;;;;;4.55;0.98;;;9.40;99.90;;;;;;4894498;29;20090;-82
2022/11/18 19:14:24;;;;;;;1.13;0.98;;;9.40;99.90;;;;;;4892881;29;20085;-82
2022/11/18 19:16:52;;;;;;;2.47;0.90;;;9.40;99.90;;;;;;4893037;29;20060;-83
2022/11/18 19:22:13;;;;;;;4.30;1.20;;;9.40;99.90;;;;;;4894922;29;20045;-81
2022/11/18 19:24:41;;;;;;;2.67;0.80;;;9.40;99.90;;;;;;4892424;29;20059;-81
2022/11/18 19:27:17;;;;;;;2.40;0.70;;;9.40;99.90;;;;;;4891566;29;20499;-81
2022/11/18 19:29:44;;;;;;;2.45;1.00;;;9.40;99.90;;;;;;4896085;29;20519;-82
2022/11/18 19:32:10;;;;;;;3.33;0.90;;;9.50;99.90;;;;;;4895218;29;20060;-81
2022/11/18 19:34:37;;;;;;;2.55;0.80;;;9.50;99.90;;;;;;4900336;29;20048;-80
2022/11/18 19:37:04;;;;;;;2.55;0.70;;;9.50;99.90;;;;;;4895178;29;20053;-82
2022/11/18 19:39:30;;;;;;;3.55;0.93;;;9.60;99.90;;;;;;4892843;29;20052;-82
2022/11/18 19:41:57;;;;;;;3.33;0.60;;;9.60;99.90;;;;;;4893779;29;20399;-81
2022/11/18 19:44:24;;;;;;;3.42;0.60;;;9.60;99.90;;;;;;4896636;29;20108;-81
2022/11/18 19:46:51;;;;;;;2.75;0.95;;;9.60;99.90;;;;;;4913960;29;20040;-81
2022/11/18 19:49:17;;;;;;;1.95;0.95;;;9.60;99.90;;;;;;4915316;29;20115;-80
2022/11/18 19:51:44;;;;;;;1.33;0.90;;;9.70;99.90;;;;;;4917381;29;20082;-81
2022/11/18 19:54:11;;;;;;;1.67;0.77;;;9.60;99.90;;;;;;4913151;29;20096;-81
2022/11/18 19:56:38;;;;;;;3.50;0.98;;;9.60;99.90;;;;;;4915800;29;20275;-81
2022/11/18 19:59:04;;;;;;;2.10;1.00;;;9.60;99.90;;;;;;4910629;29;20072;-81
2022/11/18 20:01:31;;;;;;;2.88;0.80;;;9.60;99.90;;;;;;4911351;29;20087;-80
2022/11/18 20:04:04;;;;;;;3.35;0.82;;;9.60;99.90;;;;;;4900611;29;20048;-81
2022/11/18 20:06:30;;;;;;;2.58;0.80;;;9.60;99.90;;;;;;4904734;29;20059;-81
2022/11/18 20:08:57;;;;;;;1.02;0.80;;;9.60;99.90;;;;;;4900210;29;20131;-80